createdAt,value
2018-02-06T07:12:55.692Z,76.70
2018-02-06T07:15:26.907Z,76.90
2018-02-06T07:17:56.445Z,76.70
2018-02-06T07:20:26.624Z,76.80
2018-02-06T07:22:54.081Z,76.80
2018-02-06T07:25:21.633Z,76.90
2018-02-06T07:27:52.895Z,76.90
2018-02-06T07:36:09.465Z,76.90
2018-02-06T07:38:57.780Z,77.30
2018-02-06T07:41:30.046Z,77.30
2018-02-06T07:43:59.953Z,77.40
2018-02-06T07:46:29.518Z,77.40
2018-02-06T07:49:00.234Z,77.20
2018-02-06T07:51:28.617Z,77.20
2018-02-06T07:53:58.446Z,77.20
2018-02-06T07:56:27.989Z,77.90
2018-02-06T07:58:56.759Z,77.20
2018-02-06T08:01:27.220Z,76.90
2018-02-06T08:03:56.097Z,77.00
2018-02-06T08:06:27.754Z,77.00
2018-02-06T08:08:57.361Z,77.00
2018-02-06T08:11:26.010Z,77.00
2018-02-06T08:13:53.587Z,76.90
2018-02-06T08:16:21.189Z,76.80
2018-02-06T08:18:49.612Z,76.90
2018-02-06T08:21:17.064Z,76.90
2018-02-06T08:23:45.321Z,77.70
2018-02-06T08:26:14.636Z,77.10
2018-02-06T08:28:43.140Z,76.90
2018-02-06T08:31:10.589Z,76.80
2018-02-06T08:33:38.803Z,76.80
2018-02-06T08:36:07.288Z,76.70
2018-02-06T08:38:34.800Z,76.60
2018-02-06T08:41:06.107Z,76.60
2018-02-06T08:43:36.653Z,76.40
2018-02-06T08:46:04.097Z,76.70
2018-02-06T08:48:32.028Z,76.70
2018-02-06T08:51:00.050Z,76.70
2018-02-06T08:53:27.517Z,76.60
2018-02-06T08:55:57.493Z,76.60
2018-02-06T08:58:28.625Z,76.60
2018-02-06T09:00:57.949Z,76.50
2018-02-06T09:03:26.140Z,76.30
2018-02-06T09:05:54.555Z,76.20
2018-02-06T09:10:59.447Z,77.30
2018-02-06T09:13:29.308Z,76.40
2018-02-06T09:15:59.077Z,76.40
2018-02-06T09:18:27.770Z,76.30
2018-02-06T09:20:55.258Z,76.10
2018-02-06T09:23:26.227Z,76.30
2018-02-06T09:25:54.187Z,76.20
2018-02-06T09:28:22.436Z,76.20
2018-02-06T09:30:51.829Z,76.20
2018-02-06T09:33:20.584Z,76.10
2018-02-06T09:35:49.808Z,76.10
2018-02-06T09:38:19.035Z,76.20
2018-02-06T09:40:46.495Z,76.30
2018-02-06T09:43:16.798Z,75.70
2018-02-06T09:45:44.311Z,75.40
2018-02-06T09:48:11.840Z,75.30
2018-02-06T09:50:40.041Z,75.60
2018-02-06T09:53:07.880Z,75.20
2018-02-06T09:55:36.181Z,74.30
2018-02-06T09:58:03.632Z,74.30
2018-02-06T10:00:31.148Z,73.10
2018-02-06T10:02:59.352Z,73.20
2018-02-06T10:05:26.795Z,73.20
2018-02-06T10:07:54.285Z,73.80
2018-02-06T10:10:21.730Z,73.90
2018-02-06T10:12:50.533Z,74.20
2018-02-06T10:15:17.960Z,74.50
2018-02-06T10:17:45.431Z,74.30
2018-02-06T10:20:14.762Z,74.20
2018-02-06T10:22:42.316Z,74.10
2018-02-06T10:25:09.750Z,73.70
2018-02-06T10:27:38.087Z,74.00
2018-02-06T10:30:05.684Z,74.40
2018-02-06T10:32:33.156Z,73.80
2018-02-06T10:35:00.711Z,73.60
2018-02-06T10:37:28.236Z,73.70
2018-02-06T10:39:56.196Z,74.70
2018-02-06T10:42:23.686Z,73.80
2018-02-06T10:44:51.167Z,73.90
2018-02-06T10:47:19.447Z,73.70
2018-02-06T10:49:47.076Z,73.80
2018-02-06T10:52:15.312Z,73.80
2018-02-06T10:54:42.828Z,73.70
2018-02-06T10:57:10.268Z,74.10
2018-02-06T10:59:37.707Z,74.10
2018-02-06T11:02:06.096Z,73.90
2018-02-06T11:04:34.333Z,73.80
2018-02-06T11:07:01.808Z,73.70
2018-02-06T11:09:29.349Z,73.50
2018-02-06T11:11:56.805Z,73.40
2018-02-06T11:14:24.539Z,73.30
2018-02-06T11:16:52.000Z,73.60
2018-02-06T11:19:19.456Z,73.60
2018-02-06T11:21:46.931Z,73.50
2018-02-06T11:24:14.436Z,73.50
2018-02-06T11:26:42.664Z,73.10
2018-02-06T11:29:10.240Z,73.70
2018-02-06T11:31:37.708Z,73.20
2018-02-06T11:34:05.204Z,73.20
2018-02-06T11:36:33.616Z,73.30
2018-02-06T11:39:01.092Z,73.30
2018-02-06T11:41:29.624Z,73.30
2018-02-06T11:43:57.100Z,73.10
2018-02-06T11:46:25.393Z,73.10
2018-02-06T11:48:53.484Z,73.20
2018-02-06T11:51:20.955Z,73.20
2018-02-06T11:53:48.413Z,73.20
2018-02-06T11:56:15.840Z,73.10
2018-02-06T11:58:43.412Z,72.90
2018-02-06T12:01:18.443Z,72.90
2018-02-06T12:03:45.919Z,72.60
2018-02-06T12:06:13.380Z,73.00
2018-02-06T12:08:40.862Z,72.70
2018-02-06T12:11:08.300Z,72.50
2018-02-06T12:13:36.535Z,73.00
2018-02-06T12:16:04.876Z,73.20
2018-02-06T12:18:33.650Z,73.30
2018-02-06T12:21:01.104Z,73.10
2018-02-06T12:23:28.575Z,73.70
2018-02-06T12:25:56.759Z,73.00
2018-02-06T12:28:24.264Z,73.00
2018-02-06T12:30:52.502Z,73.00
2018-02-06T12:33:20.002Z,72.80
2018-02-06T12:35:47.453Z,72.70
2018-02-06T12:38:14.920Z,72.70
2018-02-06T12:40:42.448Z,72.70
2018-02-06T12:43:09.962Z,72.80
2018-02-06T12:45:38.248Z,73.00
2018-02-06T12:48:06.480Z,72.80
2018-02-06T12:50:33.999Z,72.80
2018-02-06T12:53:03.440Z,72.70
2018-02-06T12:55:30.880Z,72.60
2018-02-06T12:57:58.436Z,72.60
2018-02-06T13:00:26.073Z,72.60
2018-02-06T13:02:53.520Z,72.50
2018-02-06T13:05:21.725Z,72.50
2018-02-06T13:07:49.192Z,72.30
2018-02-06T13:10:17.188Z,72.50
2018-02-06T13:12:45.468Z,72.30
2018-02-06T13:15:12.935Z,72.30
2018-02-06T13:17:40.388Z,72.00
2018-02-06T13:20:08.014Z,72.10
2018-02-06T13:22:35.475Z,71.80
2018-02-06T13:25:02.900Z,72.00
2018-02-06T13:27:30.364Z,72.10
2018-02-06T13:29:57.896Z,72.10
2018-02-06T13:32:27.424Z,72.60
2018-02-06T13:34:55.857Z,72.30
2018-02-06T13:37:23.476Z,72.20
2018-02-06T13:39:51.824Z,72.30
2018-02-06T13:42:20.104Z,72.50
2018-02-06T13:44:48.353Z,72.50
2018-02-06T13:47:15.944Z,72.40
2018-02-06T13:49:44.244Z,72.50
2018-02-06T13:52:11.720Z,72.50
2018-02-06T13:54:39.949Z,72.60
2018-02-06T13:57:08.336Z,72.80
2018-02-06T13:59:38.489Z,72.70
2018-02-06T14:02:07.165Z,72.70
2018-02-06T14:04:34.597Z,73.00
2018-02-06T14:07:04.077Z,73.20
2018-02-06T14:09:31.505Z,73.20
2018-02-06T14:11:58.956Z,73.40
2018-02-06T14:14:26.957Z,73.60
2018-02-06T14:16:54.428Z,73.70
2018-02-06T14:19:21.869Z,73.80
2018-02-06T14:21:49.356Z,73.90
2018-02-06T14:24:17.573Z,74.30
2018-02-06T14:26:45.696Z,74.20
2018-02-06T14:29:13.136Z,74.40
2018-02-06T14:31:41.678Z,74.60
2018-02-06T14:34:09.978Z,74.90
2018-02-06T14:36:37.490Z,75.00
2018-02-06T14:39:07.685Z,75.20
2018-02-06T14:41:35.945Z,75.50
2018-02-06T14:44:03.442Z,75.40
2018-02-06T14:46:31.675Z,75.90
2018-02-06T14:48:59.148Z,75.80
2018-02-06T14:51:26.844Z,75.90
2018-02-06T14:53:56.941Z,76.30
2018-02-06T14:56:24.408Z,76.10
2018-02-06T14:59:06.425Z,76.60
2018-02-06T15:01:34.281Z,76.60
2018-02-06T15:04:02.489Z,77.60
2018-02-06T15:06:30.773Z,77.10
2018-02-06T15:08:59.575Z,77.00
2018-02-06T15:11:34.070Z,77.10
2018-02-06T15:14:09.511Z,77.30
2018-02-06T15:16:36.993Z,77.60
2018-02-06T15:19:04.477Z,77.70
2018-02-06T15:21:32.113Z,77.90
2018-02-06T15:23:59.548Z,78.10
2018-02-06T15:26:26.993Z,78.30
2018-02-06T15:28:55.218Z,78.50
2018-02-06T15:31:22.666Z,78.50
2018-02-06T15:33:50.639Z,78.60
2018-02-06T15:36:23.289Z,78.80
2018-02-06T15:38:50.721Z,79.00
2018-02-06T15:41:18.972Z,79.40
2018-02-06T15:43:46.538Z,79.40
2018-02-06T15:46:14.775Z,79.70
2018-02-06T15:48:43.983Z,79.60
2018-02-06T15:51:11.444Z,79.90
2018-02-06T15:53:38.924Z,80.00
2018-02-06T15:56:06.525Z,80.10
2018-02-06T15:58:34.069Z,80.20
2018-02-06T16:01:02.117Z,80.50
2018-02-06T16:03:29.649Z,80.60
2018-02-06T16:05:57.070Z,80.70
2018-02-06T16:08:26.236Z,80.80
2018-02-06T16:10:54.448Z,81.30
2018-02-06T16:13:22.093Z,81.30
2018-02-06T16:15:49.529Z,81.40
2018-02-06T16:18:17.780Z,81.80
2018-02-06T16:20:45.248Z,81.70
2018-02-06T16:23:12.746Z,81.90
2018-02-06T16:25:40.177Z,81.90
2018-02-06T16:28:08.382Z,82.30
2018-02-06T16:30:35.936Z,82.30
2018-02-06T16:33:03.365Z,82.40
2018-02-06T16:35:31.592Z,82.60
2018-02-06T16:37:59.893Z,82.60
2018-02-06T16:40:27.367Z,82.80
2018-02-06T16:42:54.796Z,82.80
2018-02-06T16:45:27.236Z,83.10
2018-02-06T16:47:54.665Z,83.20
2018-02-06T16:50:26.584Z,83.50
2018-02-06T16:52:54.310Z,83.40
2018-02-06T16:55:21.780Z,83.60
2018-02-06T16:57:49.232Z,83.80
2018-02-06T17:00:16.708Z,84.00
2018-02-06T17:02:44.143Z,84.20
2018-02-06T17:05:11.608Z,84.20
2018-02-06T17:07:39.104Z,84.40
2018-02-06T17:10:07.353Z,84.50
2018-02-06T17:12:39.644Z,84.50
2018-02-06T17:15:07.387Z,84.60
2018-02-06T17:17:34.833Z,84.70
2018-02-06T17:20:02.353Z,84.80
2018-02-06T17:22:29.791Z,85.00
2018-02-06T17:24:57.266Z,85.20
2018-02-06T17:27:24.700Z,85.20
2018-02-06T17:29:52.135Z,85.40
2018-02-06T17:32:19.629Z,85.30
2018-02-06T17:34:47.072Z,85.50
2018-02-06T17:37:14.525Z,85.50
2018-02-06T17:39:42.036Z,85.50
2018-02-06T17:42:10.226Z,85.70
2018-02-06T17:44:37.794Z,85.70
2018-02-06T17:47:05.237Z,85.80
2018-02-06T17:49:33.452Z,85.90
2018-02-06T17:52:00.930Z,85.90
2018-02-06T17:54:28.599Z,86.10
2018-02-06T17:56:56.067Z,86.90
2018-02-06T17:59:23.489Z,86.30
2018-02-06T18:01:50.965Z,86.50
2018-02-06T18:04:18.400Z,86.60
2018-02-06T18:06:45.839Z,86.70
2018-02-06T18:09:13.309Z,86.80
2018-02-06T18:11:40.754Z,86.90
2018-02-06T18:14:08.463Z,87.00
2018-02-06T18:16:35.904Z,87.10
2018-02-06T18:19:03.375Z,87.70
2018-02-06T18:21:30.812Z,87.20
2018-02-06T18:23:58.281Z,87.30
2018-02-06T18:26:25.717Z,87.30
2018-02-06T18:28:53.177Z,87.40
2018-02-06T18:31:20.684Z,87.50
2018-02-06T18:33:48.884Z,87.70
2018-02-06T18:36:16.352Z,87.70
2018-02-06T18:38:44.556Z,87.90
2018-02-06T18:41:12.040Z,87.80
2018-02-06T18:43:39.478Z,87.90
2018-02-06T18:46:06.917Z,88.00
2018-02-06T18:48:34.443Z,88.10
2018-02-06T18:51:01.886Z,88.10
2018-02-06T18:53:30.163Z,88.40
2018-02-06T18:55:57.553Z,88.40
2018-02-06T18:58:24.992Z,88.40
2018-02-06T19:00:52.488Z,88.50
2018-02-06T19:03:19.933Z,88.60
2018-02-06T19:05:47.388Z,88.70
2018-02-06T19:08:15.184Z,88.80
2018-02-06T19:10:42.627Z,88.80
2018-02-06T19:13:10.967Z,88.90
2018-02-06T19:15:39.879Z,88.90
2018-02-06T19:18:07.316Z,89.00
2018-02-06T19:20:34.804Z,89.00
2018-02-06T19:23:02.245Z,89.00
2018-02-06T19:25:29.697Z,89.10
2018-02-06T19:27:57.145Z,89.20
2018-02-06T19:30:24.576Z,89.20
2018-02-06T19:32:52.832Z,89.40
2018-02-06T19:35:20.264Z,89.40
2018-02-06T19:37:47.741Z,89.50
2018-02-06T19:40:15.172Z,89.50
2018-02-06T19:42:42.616Z,89.50
2018-02-06T19:45:10.084Z,89.50
2018-02-06T19:47:37.520Z,89.50
2018-02-06T19:50:05.057Z,89.60
2018-02-06T19:52:33.269Z,89.60
2018-02-06T19:55:03.217Z,89.60
2018-02-06T19:57:30.660Z,89.60
2018-02-06T20:00:00.589Z,89.50
2018-02-06T20:02:28.028Z,89.50
2018-02-06T20:04:55.472Z,89.40
2018-02-06T20:07:23.219Z,89.40
2018-02-06T20:09:50.660Z,89.30
2018-02-06T20:12:18.863Z,89.30
2018-02-06T20:14:47.265Z,89.40
2018-02-06T20:17:14.698Z,89.40
2018-02-06T20:19:42.160Z,89.40
2018-02-06T20:22:09.756Z,89.40
2018-02-06T20:24:37.187Z,89.40
2018-02-06T20:27:04.693Z,89.40
2018-02-06T20:29:33.145Z,89.50
2018-02-06T20:32:00.668Z,89.40
2018-02-06T20:34:28.125Z,89.50
2018-02-06T20:36:55.620Z,89.40
2018-02-06T20:39:23.076Z,89.40
2018-02-06T20:41:50.550Z,89.50
2018-02-06T20:44:18.006Z,89.50
2018-02-06T20:46:45.452Z,89.70
2018-02-06T20:49:12.892Z,89.90
2018-02-06T20:51:40.455Z,90.00
2018-02-06T20:54:07.907Z,90.00
2018-02-06T20:56:35.353Z,90.00
2018-02-06T20:59:02.876Z,90.10
2018-02-06T21:01:31.080Z,90.10
2018-02-06T21:03:59.308Z,90.10
2018-02-06T21:06:27.037Z,90.10
2018-02-06T21:08:54.632Z,90.10
2018-02-06T21:11:22.067Z,90.10
2018-02-06T21:13:49.528Z,90.00
2018-02-06T21:16:17.059Z,90.10
2018-02-06T21:18:44.487Z,90.10
2018-02-06T21:21:12.716Z,90.20
2018-02-06T21:23:40.148Z,90.10
2018-02-06T21:26:07.678Z,90.20
2018-02-06T21:28:35.876Z,90.30
2018-02-06T21:31:03.344Z,90.20
2018-02-06T21:33:30.790Z,90.30
2018-02-06T21:35:58.280Z,90.30
2018-02-06T21:38:25.716Z,90.30
2018-02-06T21:40:53.155Z,90.30
2018-02-06T21:43:20.733Z,90.30
2018-02-06T21:45:49.072Z,90.30
2018-02-06T21:48:17.304Z,90.30
2018-02-06T21:50:44.747Z,90.30
2018-02-06T21:53:12.914Z,90.30
2018-02-06T21:55:40.347Z,90.30
2018-02-06T21:58:12.868Z,90.30
2018-02-06T22:00:40.311Z,90.30
2018-02-06T22:03:07.796Z,90.40
2018-02-06T22:05:35.245Z,90.40
2018-02-06T22:08:02.700Z,90.50
2018-02-06T22:10:30.385Z,90.50
2018-02-06T22:12:58.617Z,90.50
2018-02-06T22:15:26.241Z,90.50
2018-02-06T22:17:54.563Z,90.60
2018-02-06T22:20:22.025Z,90.60
2018-02-06T22:22:49.472Z,90.60
2018-02-06T22:25:16.944Z,90.60
2018-02-06T22:27:44.412Z,90.70
2018-02-06T22:30:11.876Z,90.70
2018-02-06T22:32:39.320Z,90.70
2018-02-06T22:35:06.952Z,90.70
2018-02-06T22:37:34.405Z,90.70
2018-02-06T22:40:01.875Z,90.70
2018-02-06T22:42:29.313Z,90.70
2018-02-06T22:44:56.779Z,90.70
2018-02-06T22:47:24.653Z,90.70
2018-02-06T22:49:52.093Z,90.70
2018-02-06T22:52:19.695Z,90.70
2018-02-06T22:54:47.139Z,90.80
2018-02-06T22:57:14.585Z,90.80
2018-02-06T22:59:42.052Z,90.70
2018-02-06T23:02:09.495Z,90.70
2018-02-06T23:04:36.964Z,90.70
2018-02-06T23:07:04.408Z,90.70
2018-02-06T23:09:31.896Z,90.70
2018-02-06T23:11:59.340Z,90.70
2018-02-06T23:14:26.808Z,90.80
2018-02-06T23:16:54.249Z,90.80
2018-02-06T23:19:21.752Z,90.70
2018-02-06T23:21:49.188Z,90.70
2018-02-06T23:24:16.654Z,90.70
2018-02-06T23:26:44.093Z,90.80
2018-02-06T23:29:11.559Z,90.80
2018-02-06T23:31:38.996Z,90.80
2018-02-06T23:34:06.516Z,90.80
2018-02-06T23:36:34.720Z,90.90
2018-02-06T23:39:02.964Z,90.90
2018-02-06T23:41:31.173Z,91.00
2018-02-06T23:43:58.658Z,91.00
2018-02-06T23:46:26.124Z,91.00
2018-02-06T23:48:53.567Z,90.90
2018-02-06T23:51:21.015Z,90.90
2018-02-06T23:53:48.523Z,91.00
2018-02-06T23:56:16.737Z,91.20
2018-02-06T23:58:44.199Z,91.00
